createdAt,value
2022-08-26T00:01:44.772Z,100554.31
2022-08-26T00:04:12.505Z,100556.06
2022-08-26T00:06:42.520Z,100553.44
2022-08-26T00:09:13.456Z,100561.28
2022-08-26T00:11:43.148Z,100562.13
2022-08-26T00:14:09.889Z,100564.72
2022-08-26T00:16:36.702Z,100561.22
2022-08-26T00:19:07.535Z,100557.72
2022-08-26T00:21:34.907Z,100552.50
2022-08-26T00:24:04.475Z,100554.19
2022-08-26T00:26:31.119Z,100555.94
2022-08-26T00:28:57.696Z,100555.94
2022-08-26T00:31:24.319Z,100554.25
2022-08-26T00:33:50.973Z,100553.38
2022-08-26T00:36:19.983Z,100555.13
2022-08-26T00:38:48.087Z,100550.81
2022-08-26T00:41:14.997Z,100554.28
2022-08-26T00:43:47.459Z,100554.31
2022-08-26T00:46:19.811Z,100555.19
2022-08-26T00:48:50.215Z,100556.06
2022-08-26T00:51:20.687Z,100554.34
2022-08-26T00:53:53.782Z,100556.13
2022-08-26T00:56:29.836Z,100552.69
2022-08-26T00:59:00.904Z,100555.28
2022-08-26T01:01:28.430Z,100558.81
2022-08-26T01:03:58.698Z,100556.28
2022-08-26T01:06:27.366Z,100560.63
2022-08-26T01:08:54.531Z,100559.78
2022-08-26T01:11:21.524Z,100563.25
2022-08-26T01:13:51.006Z,100558.94
2022-08-26T01:16:17.984Z,100565.03
2022-08-26T01:18:45.280Z,100563.34
2022-08-26T01:21:44.342Z,100565.16
2022-08-26T01:24:12.094Z,100567.69
2022-08-26T01:26:43.145Z,100565.97
2022-08-26T01:29:15.189Z,100565.97
2022-08-26T01:31:46.424Z,100565.13
2022-08-26T01:34:20.908Z,100563.38
2022-08-26T01:36:51.705Z,100566.88
2022-08-26T01:39:19.249Z,100570.38
2022-08-26T01:41:47.620Z,100577.31
2022-08-26T01:44:25.612Z,100575.59
2022-08-26T01:46:54.217Z,100568.69
2022-08-26T01:49:23.215Z,100575.63
2022-08-26T01:51:55.417Z,100571.31
2022-08-26T01:54:22.995Z,100570.44
2022-08-26T01:56:52.290Z,100573.00
2022-08-26T01:59:20.572Z,100565.19
2022-08-26T02:01:48.454Z,100573.88
2022-08-26T02:07:05.018Z,100580.81
2022-08-26T02:09:32.552Z,100574.91
2022-08-26T02:12:06.174Z,100580.00
2022-08-26T02:14:43.773Z,100580.81
2022-08-26T02:17:11.942Z,100585.16
2022-08-26T02:19:42.108Z,100573.88
2022-08-26T02:22:16.102Z,100572.09
2022-08-26T02:27:28.130Z,100573.81
2022-08-26T02:30:09.206Z,100579.03
2022-08-26T02:32:37.151Z,100577.34
2022-08-26T02:35:08.145Z,100575.63
2022-08-26T02:37:35.143Z,100576.50
2022-08-26T02:40:03.987Z,100580.84
2022-08-26T02:42:30.892Z,100580.84
2022-08-26T02:44:57.498Z,100580.84
2022-08-26T02:47:25.568Z,100576.50
2022-08-26T02:49:55.892Z,100579.13
2022-08-26T02:52:22.518Z,100580.84
2022-08-26T02:54:49.598Z,100579.13
2022-08-26T02:57:16.325Z,100582.59
2022-08-26T02:59:42.905Z,100580.00
2022-08-26T03:02:15.605Z,100573.09
2022-08-26T03:04:57.328Z,100577.41
2022-08-26T03:07:27.619Z,100580.03
2022-08-26T03:09:54.218Z,100577.44
2022-08-26T03:12:20.853Z,100578.31
2022-08-26T03:14:48.277Z,100577.44
2022-08-26T03:17:15.593Z,100576.59
2022-08-26T03:19:42.529Z,100572.25
2022-08-26T03:22:09.121Z,100567.03
2022-08-26T03:24:37.757Z,100572.22
2022-08-26T03:27:05.768Z,100575.69
2022-08-26T03:29:54.116Z,100576.53
2022-08-26T03:32:22.156Z,100575.69
2022-08-26T03:34:53.612Z,100570.50
2022-08-26T03:37:20.901Z,100575.72
2022-08-26T03:39:48.199Z,100570.53
2022-08-26T03:42:15.947Z,100567.09
2022-08-26T03:44:42.570Z,100568.84
2022-08-26T03:47:09.542Z,100563.63
2022-08-26T03:49:36.228Z,100566.25
2022-08-26T03:52:04.509Z,100562.78
2022-08-26T03:54:31.333Z,100554.97
2022-08-26T03:56:58.427Z,100558.44
2022-08-26T03:59:25.226Z,100548.91
2022-08-26T04:01:52.069Z,100550.63
2022-08-26T04:04:18.820Z,100549.78
2022-08-26T04:06:50.202Z,100553.25
2022-08-26T04:09:20.908Z,100551.53
2022-08-26T04:11:50.623Z,100554.13
2022-08-26T04:14:20.073Z,100548.19
2022-08-26T04:16:47.502Z,100547.38
2022-08-26T04:19:15.781Z,100540.38
2022-08-26T04:21:43.426Z,100541.22
2022-08-26T04:24:12.370Z,100542.09
2022-08-26T04:26:42.629Z,100538.66
2022-08-26T04:29:15.617Z,100544.72
2022-08-26T04:31:42.512Z,100544.75
2022-08-26T04:34:11.022Z,100536.06
2022-08-26T04:36:38.585Z,100541.28
2022-08-26T04:39:05.509Z,100549.97
2022-08-26T04:41:32.988Z,100550.00
2022-08-26T04:43:59.857Z,100546.56
2022-08-26T04:46:26.547Z,100547.41
2022-08-26T04:48:55.223Z,100548.28
2022-08-26T04:51:27.917Z,100539.59
2022-08-26T04:53:58.135Z,100545.69
2022-08-26T04:56:26.307Z,100543.19
2022-08-26T04:58:53.570Z,100537.94
2022-08-26T05:01:21.148Z,100544.88
2022-08-26T05:03:49.246Z,100541.44
2022-08-26T05:06:16.828Z,100539.69
2022-08-26T05:08:45.668Z,100542.28
2022-08-26T05:11:12.404Z,100543.16
2022-08-26T05:13:39.252Z,100546.66
2022-08-26T05:16:08.549Z,100546.66
2022-08-26T05:18:39.550Z,100548.38
2022-08-26T05:21:07.211Z,100553.56
2022-08-26T05:23:36.139Z,100547.47
2022-08-26T05:26:07.748Z,100546.59
2022-08-26T05:28:35.125Z,100548.31
2022-08-26T05:31:10.626Z,100551.78
2022-08-26T05:33:37.886Z,100548.28
2022-08-26T05:36:11.030Z,100545.69
2022-08-26T05:38:38.429Z,100546.56
2022-08-26T05:41:14.375Z,100552.59
2022-08-26T05:43:43.407Z,100550.00
2022-08-26T05:46:10.634Z,100544.78
2022-08-26T05:48:37.680Z,100551.69
2022-08-26T05:51:08.569Z,100556.00
2022-08-26T05:53:36.430Z,100549.91
2022-08-26T05:56:06.795Z,100543.81
2022-08-26T05:58:35.420Z,100550.72
2022-08-26T06:03:39.777Z,100555.81
2022-08-26T06:06:10.729Z,100557.50
2022-08-26T06:08:37.801Z,100560.06
2022-08-26T06:11:07.199Z,100566.91
2022-08-26T06:13:35.092Z,100563.38
2022-08-26T06:16:05.787Z,100559.84
2022-08-26T06:18:36.440Z,100571.03
2022-08-26T06:21:25.628Z,100566.59
2022-08-26T06:24:15.243Z,100568.22
2022-08-26T06:26:50.434Z,100566.41
2022-08-26T06:29:24.506Z,100574.19
2022-08-26T06:31:52.826Z,100574.97
2022-08-26T06:34:19.974Z,100574.94
2022-08-26T06:36:47.825Z,100574.84
2022-08-26T06:39:16.496Z,100579.13
2022-08-26T06:41:45.089Z,100579.16
2022-08-26T06:44:14.966Z,100578.22
2022-08-26T06:46:43.286Z,100581.59
2022-08-26T06:49:12.428Z,100578.03
2022-08-26T06:51:40.120Z,100578.78
2022-08-26T06:54:09.969Z,100574.31
2022-08-26T06:56:41.775Z,100579.34
2022-08-26T06:59:09.637Z,100572.34
2022-08-26T07:01:42.977Z,100574.00
2022-08-26T07:04:12.046Z,100585.13
2022-08-26T07:06:40.574Z,100577.00
2022-08-26T07:09:09.836Z,100585.47
2022-08-26T07:11:39.158Z,100585.25
2022-08-26T07:14:07.198Z,100581.63
2022-08-26T07:16:34.260Z,100586.66
2022-08-26T07:19:11.103Z,100581.28
2022-08-26T07:21:40.258Z,100577.56
2022-08-26T07:24:07.350Z,100584.13
2022-08-26T07:26:34.761Z,100594.31
2022-08-26T07:29:02.489Z,100594.00
2022-08-26T07:31:39.142Z,100593.47
2022-08-26T07:34:07.671Z,100594.31
2022-08-26T07:36:34.907Z,100593.38
2022-08-26T07:39:01.643Z,100596.88
2022-08-26T07:43:56.910Z,100591.09
2022-08-26T07:46:27.289Z,100604.06
2022-08-26T07:48:57.889Z,100598.03
2022-08-26T07:51:25.448Z,100600.69
2022-08-26T07:53:53.183Z,100598.94
2022-08-26T07:56:21.867Z,100605.88
2022-08-26T07:58:51.435Z,100605.69
2022-08-26T08:01:18.805Z,100610.81
2022-08-26T08:03:46.572Z,100607.38
2022-08-26T08:06:19.416Z,100609.28
2022-08-26T08:08:46.392Z,100609.47
2022-08-26T08:11:14.955Z,100609.75
2022-08-26T08:13:41.586Z,100620.53
2022-08-26T08:16:12.490Z,100619.03
2022-08-26T08:18:40.475Z,100614.81
2022-08-26T08:21:21.785Z,100614.13
2022-08-26T08:23:48.739Z,100622.97
2022-08-26T08:26:15.512Z,100612.47
2022-08-26T08:28:44.014Z,100613.13
2022-08-26T08:31:38.748Z,100617.25
2022-08-26T08:34:05.995Z,100616.38
2022-08-26T08:36:36.082Z,100616.44
2022-08-26T08:39:03.331Z,100621.19
2022-08-26T08:44:16.135Z,100617.53
2022-08-26T08:46:43.642Z,100615.81
2022-08-26T08:49:11.158Z,100619.47
2022-08-26T08:54:14.929Z,100621.59
2022-08-26T08:56:49.952Z,100619.03
2022-08-26T09:12:53.600Z,100613.09
2022-08-26T09:15:36.558Z,100614.69
2022-08-26T09:23:25.249Z,100600.75
2022-08-26T09:26:14.584Z,100613.59
2022-08-26T09:28:45.013Z,100612.53
2022-08-26T09:31:30.966Z,100608.06
2022-08-26T09:36:46.174Z,100604.16
2022-08-26T09:39:52.622Z,100613.59
2022-08-26T09:47:52.578Z,100594.50
2022-08-26T09:58:16.663Z,100598.72
2022-08-26T10:01:02.693Z,100597.31
2022-08-26T10:03:33.090Z,100597.25
2022-08-26T10:06:04.134Z,100590.91
2022-08-26T10:13:48.460Z,100587.75
2022-08-26T10:16:21.674Z,100587.78
2022-08-26T10:24:28.294Z,100580.28
2022-08-26T10:29:44.141Z,100589.16
2022-08-26T10:32:16.295Z,100581.88
2022-08-26T10:34:43.840Z,100582.38
2022-08-26T10:37:17.864Z,100578.09
2022-08-26T10:42:42.078Z,100566.53
2022-08-26T10:45:14.884Z,100560.78
2022-08-26T10:47:50.387Z,100571.38
2022-08-26T10:50:18.284Z,100562.09
2022-08-26T10:56:15.711Z,100554.44
2022-08-26T11:07:32.721Z,100549.44
2022-08-26T11:10:01.883Z,100542.94
2022-08-26T11:18:12.080Z,100545.56
2022-08-26T11:31:52.993Z,100534.63
2022-08-26T11:47:32.032Z,100548.72
2022-08-26T11:50:08.268Z,100541.91
2022-08-26T11:52:34.918Z,100547.94
2022-08-26T11:55:08.095Z,100543.41
2022-08-26T11:57:43.439Z,100542.09
2022-08-26T12:00:20.944Z,100539.84
2022-08-26T12:02:50.157Z,100535.31
2022-08-26T12:05:26.817Z,100533.13
2022-08-26T12:08:02.909Z,100528.09
2022-08-26T12:10:34.139Z,100532.63
2022-08-26T12:13:02.812Z,100522.41
2022-08-26T12:15:31.162Z,100525.38
2022-08-26T12:17:59.068Z,100521.25
2022-08-26T12:28:24.041Z,100523.34
2022-08-26T12:30:59.848Z,100513.19
2022-08-26T12:33:28.344Z,100511.38
2022-08-26T12:35:56.526Z,100522.78
2022-08-26T12:38:25.464Z,100514.81
2022-08-26T12:40:52.795Z,100517.84
2022-08-26T12:43:42.601Z,100514.28
2022-08-26T12:46:13.007Z,100512.28
2022-08-26T12:48:44.317Z,100512.75
2022-08-26T12:51:32.208Z,100516.84
2022-08-26T12:53:59.820Z,100515.13
2022-08-26T13:01:52.338Z,100523.28
2022-08-26T13:07:23.031Z,100511.72
2022-08-26T13:09:53.271Z,100512.38
2022-08-26T13:15:03.750Z,100509.91
2022-08-26T13:17:31.241Z,100510.00
2022-08-26T13:20:03.584Z,100507.97
2022-08-26T13:22:31.438Z,100499.59
2022-08-26T13:24:58.173Z,100501.41
2022-08-26T13:27:26.519Z,100491.28
2022-08-26T13:29:54.758Z,100496.59
2022-08-26T13:32:23.788Z,100489.38
2022-08-26T13:34:55.714Z,100489.19
2022-08-26T13:37:34.685Z,100489.19
2022-08-26T13:40:03.602Z,100485.03
2022-08-26T13:42:31.275Z,100486.00
2022-08-26T13:44:58.966Z,100483.53
2022-08-26T13:47:26.169Z,100486.19
2022-08-26T13:49:55.283Z,100478.03
2022-08-26T13:52:29.162Z,100478.03
2022-08-26T13:55:00.244Z,100473.47
2022-08-26T13:57:28.692Z,100481.44
2022-08-26T13:59:57.142Z,100478.41
2022-08-26T14:02:23.936Z,100478.09
2022-08-26T14:04:50.758Z,100470.03
2022-08-26T14:07:17.615Z,100472.13
2022-08-26T14:09:44.271Z,100474.88
2022-08-26T14:12:10.942Z,100476.66
2022-08-26T14:14:37.672Z,100472.13
2022-08-26T14:17:04.563Z,100470.03
2022-08-26T14:19:31.575Z,100467.28
2022-08-26T14:22:00.894Z,100467.19
2022-08-26T14:24:29.072Z,100473.44
2022-08-26T14:26:55.890Z,100465.66
2022-08-26T14:29:22.539Z,100471.94
2022-08-26T14:31:49.369Z,100461.50
2022-08-26T14:34:16.438Z,100465.50
2022-08-26T14:36:43.569Z,100462.47
2022-08-26T14:39:12.670Z,100467.78
2022-08-26T14:41:54.517Z,100466.09
2022-08-26T14:44:24.392Z,100460.78
2022-08-26T14:46:52.989Z,100464.19
2022-08-26T14:49:20.553Z,100457.81
2022-08-26T14:51:47.515Z,100460.38
2022-08-26T14:54:16.372Z,100457.94
2022-08-26T14:59:25.515Z,100452.81
2022-08-26T15:01:53.555Z,100456.53
2022-08-26T15:04:21.018Z,100457.53
2022-08-26T15:06:48.250Z,100451.59
2022-08-26T15:09:15.486Z,100444.06
2022-08-26T15:11:43.771Z,100445.59
2022-08-26T15:14:18.979Z,100445.03
2022-08-26T15:16:48.461Z,100437.63
2022-08-26T15:19:16.078Z,100436.88
2022-08-26T15:21:43.440Z,100434.59
2022-08-26T15:24:10.226Z,100431.41
2022-08-26T15:26:37.210Z,100433.28
2022-08-26T15:29:05.182Z,100427.41
2022-08-26T15:31:33.165Z,100422.66
2022-08-26T15:34:03.241Z,100419.25
2022-08-26T15:36:32.462Z,100421.91
2022-08-26T15:39:00.288Z,100425.81
2022-08-26T15:41:27.480Z,100419.09
2022-08-26T15:43:54.083Z,100419.19
2022-08-26T15:46:20.727Z,100421.84
2022-08-26T15:48:47.749Z,100427.91
2022-08-26T15:51:29.530Z,100418.63
2022-08-26T15:53:57.142Z,100420.16
2022-08-26T15:56:26.608Z,100427.16
2022-08-26T15:58:55.044Z,100418.22
2022-08-26T16:01:27.860Z,100420.84
2022-08-26T16:03:56.054Z,100416.72
2022-08-26T16:06:27.428Z,100413.31
2022-08-26T16:08:56.170Z,100411.81
2022-08-26T16:11:24.201Z,100417.63
2022-08-26T16:13:51.074Z,100413.06
2022-08-26T16:16:18.645Z,100410.84
2022-08-26T16:18:45.690Z,100417.56
2022-08-26T16:21:17.875Z,100411.66
2022-08-26T16:23:45.609Z,100409.19
2022-08-26T16:26:15.696Z,100404.81
2022-08-26T16:28:43.602Z,100405.78
2022-08-26T16:31:10.792Z,100401.34
2022-08-26T16:33:37.961Z,100395.97
2022-08-26T16:36:05.744Z,100395.00
2022-08-26T16:38:32.851Z,100395.75
2022-08-26T16:41:01.195Z,100396.53
2022-08-26T16:43:28.610Z,100398.22
2022-08-26T16:45:56.152Z,100393.09
2022-08-26T16:48:23.813Z,100400.31
2022-08-26T16:50:51.777Z,100395.44
2022-08-26T16:53:19.263Z,100397.72
2022-08-26T16:55:48.252Z,100398.25
2022-08-26T16:58:15.287Z,100395.19
2022-08-26T17:00:42.079Z,100385.03
2022-08-26T17:03:09.512Z,100392.47
2022-08-26T17:05:36.771Z,100394.34
2022-08-26T17:08:04.920Z,100400.66
2022-08-26T17:10:32.904Z,100398.28
2022-08-26T17:12:59.818Z,100393.16
2022-08-26T17:15:26.977Z,100395.03
2022-08-26T17:17:54.592Z,100400.47
2022-08-26T17:20:22.475Z,100398.03
2022-08-26T17:22:51.385Z,100395.53
2022-08-26T17:25:30.139Z,100401.00
2022-08-26T17:30:30.872Z,100399.75
2022-08-26T17:32:57.529Z,100395.44
2022-08-26T17:35:24.796Z,100393.06
2022-08-26T17:37:52.039Z,100399.31
2022-08-26T17:40:22.151Z,100396.81
2022-08-26T17:42:49.694Z,100392.63
2022-08-26T17:45:17.374Z,100391.00
2022-08-26T17:47:44.875Z,100386.75
2022-08-26T17:50:15.051Z,100391.25
2022-08-26T17:52:42.541Z,100393.13
2022-08-26T17:55:12.079Z,100388.94
2022-08-26T17:57:40.759Z,100395.25
2022-08-26T18:00:13.430Z,100389.25
2022-08-26T18:02:40.865Z,100387.72
2022-08-26T18:05:08.827Z,100393.34
2022-08-26T18:07:43.607Z,100390.16
2022-08-26T18:10:13.594Z,100394.16
2022-08-26T18:12:41.017Z,100393.66
2022-08-26T18:15:09.701Z,100394.03
2022-08-26T18:17:39.068Z,100389.13
2022-08-26T18:20:08.058Z,100399.44
2022-08-26T18:22:34.812Z,100389.28
2022-08-26T18:25:01.473Z,100389.50
2022-08-26T18:27:28.147Z,100389.81
2022-08-26T18:29:55.464Z,100395.31
2022-08-26T18:32:22.068Z,100390.31
2022-08-26T18:34:48.956Z,100388.00
2022-08-26T18:37:15.671Z,100393.56
2022-08-26T18:39:42.265Z,100389.44
2022-08-26T18:42:09.056Z,100399.38
2022-08-26T18:44:35.726Z,100398.78
2022-08-26T18:47:02.591Z,100398.19
2022-08-26T18:49:29.509Z,100397.63
2022-08-26T18:51:56.241Z,100399.78
2022-08-26T18:54:23.014Z,100400.03
2022-08-26T18:56:49.749Z,100407.47
2022-08-26T18:59:17.453Z,100404.19
2022-08-26T19:01:45.403Z,100404.31
2022-08-26T19:04:15.404Z,100414.31
2022-08-26T19:06:43.684Z,100410.28
2022-08-26T19:09:12.019Z,100409.72
2022-08-26T19:11:43.166Z,100410.91
2022-08-26T19:14:13.715Z,100406.59
2022-08-26T19:16:43.204Z,100411.19
2022-08-26T19:19:10.942Z,100409.63
2022-08-26T19:21:38.890Z,100408.03
2022-08-26T19:24:15.414Z,100411.72
2022-08-26T19:26:45.245Z,100406.59
2022-08-26T19:29:12.860Z,100409.44
2022-08-26T19:31:39.633Z,100412.25
2022-08-26T19:34:09.433Z,100415.06
2022-08-26T19:36:36.590Z,100416.13
2022-08-26T19:39:07.763Z,100418.06
2022-08-26T19:41:37.913Z,100419.09
2022-08-26T19:44:09.065Z,100418.41
2022-08-26T19:46:36.480Z,100419.47
2022-08-26T19:49:03.477Z,100424.03
2022-08-26T19:51:32.219Z,100431.19
2022-08-26T19:54:00.759Z,100429.59
2022-08-26T19:56:28.119Z,100430.63
2022-08-26T19:58:55.570Z,100430.78
2022-08-26T20:01:23.194Z,100430.97
2022-08-26T20:03:50.103Z,100435.47
2022-08-26T20:06:17.167Z,100437.41
2022-08-26T20:08:44.841Z,100441.06
2022-08-26T20:11:15.849Z,100444.75
2022-08-26T20:13:43.868Z,100439.72
2022-08-26T20:16:11.964Z,100446.00
2022-08-26T20:19:00.761Z,100447.06
2022-08-26T20:21:29.820Z,100445.56
2022-08-26T20:24:01.462Z,100450.97
2022-08-26T20:26:29.999Z,100450.16
2022-08-26T20:28:57.368Z,100445.13
2022-08-26T20:31:25.394Z,100442.63
2022-08-26T20:33:52.332Z,100448.94
2022-08-26T20:36:21.191Z,100444.66
2022-08-26T20:38:48.659Z,100452.75
2022-08-26T20:41:16.167Z,100460.78
2022-08-26T20:43:43.408Z,100461.00
2022-08-26T20:46:18.069Z,100459.41
2022-08-26T20:48:47.079Z,100461.34
2022-08-26T20:51:14.163Z,100466.72
2022-08-26T20:53:41.457Z,100465.09
2022-08-26T20:56:10.266Z,100465.19
2022-08-26T20:58:37.933Z,100468.84
2022-08-26T21:01:07.952Z,100475.13
2022-08-26T21:03:35.930Z,100472.59
2022-08-26T21:06:03.784Z,100474.53
2022-08-26T21:08:33.099Z,100475.59
2022-08-26T21:11:00.324Z,100473.84
2022-08-26T21:13:27.019Z,100473.44
2022-08-26T21:15:57.563Z,100480.50
2022-08-26T21:18:24.925Z,100492.94
2022-08-26T21:20:51.816Z,100479.13
2022-08-26T21:23:19.376Z,100486.16
2022-08-26T21:25:46.638Z,100494.28
2022-08-26T21:28:13.472Z,100496.13
2022-08-26T21:30:41.101Z,100491.91
2022-08-26T21:33:08.389Z,100499.97
2022-08-26T21:35:35.689Z,100490.53
2022-08-26T21:38:02.369Z,100493.28
2022-08-26T21:40:29.121Z,100494.34
2022-08-26T21:42:55.928Z,100496.22
2022-08-26T21:45:22.766Z,100503.34
2022-08-26T21:47:49.483Z,100500.03
2022-08-26T21:50:16.182Z,100499.31
2022-08-26T21:52:42.766Z,100495.91
2022-08-26T21:55:11.781Z,100496.94
2022-08-26T21:57:38.803Z,100498.78
2022-08-26T22:00:09.017Z,100504.09
2022-08-26T22:02:36.992Z,100497.25
2022-08-26T22:05:04.371Z,100500.84
2022-08-26T22:07:31.044Z,100498.34
2022-08-26T22:09:57.986Z,100508.06
2022-08-26T22:12:24.609Z,100508.25
2022-08-26T22:14:51.300Z,100507.56
2022-08-26T22:17:18.059Z,100506.78
2022-08-26T22:19:46.204Z,100511.28
2022-08-26T22:22:14.187Z,100515.72
2022-08-26T22:24:43.412Z,100510.66
2022-08-26T22:27:11.966Z,100514.34
2022-08-26T22:29:38.798Z,100516.25
2022-08-26T22:32:06.137Z,100516.38
2022-08-26T22:34:32.816Z,100513.03
2022-08-26T22:36:59.756Z,100514.00
2022-08-26T22:39:26.960Z,100512.31
2022-08-26T22:41:54.300Z,100514.97
2022-08-26T22:44:22.282Z,100515.06
2022-08-26T22:46:51.238Z,100503.78
2022-08-26T22:49:17.977Z,100520.50
2022-08-26T22:51:45.884Z,100517.97
2022-08-26T22:54:13.609Z,100516.31
2022-08-26T22:56:40.786Z,100519.00
2022-08-26T22:59:08.240Z,100522.50
2022-08-26T23:01:40.724Z,100512.97
2022-08-26T23:04:08.065Z,100519.19
2022-08-26T23:06:37.520Z,100521.84
2022-08-26T23:09:05.674Z,100521.88
2022-08-26T23:11:32.828Z,100521.09
2022-08-26T23:14:00.521Z,100521.16
2022-08-26T23:16:32.179Z,100520.34
2022-08-26T23:19:05.065Z,100526.53
2022-08-26T23:21:31.691Z,100525.75
2022-08-26T23:23:58.327Z,100524.94
2022-08-26T23:26:24.992Z,100524.16
2022-08-26T23:28:51.602Z,100520.72
2022-08-26T23:31:18.232Z,100520.75
2022-08-26T23:34:04.859Z,100527.78
2022-08-26T23:36:31.617Z,100523.47
2022-08-26T23:39:01.171Z,100520.00
2022-08-26T23:41:28.465Z,100530.50
2022-08-26T23:43:55.173Z,100527.91
2022-08-26T23:46:21.884Z,100527.94
2022-08-26T23:48:48.743Z,100514.03
2022-08-26T23:51:35.372Z,100521.94
2022-08-26T23:54:02.144Z,100511.53
2022-08-26T23:56:29.229Z,100509.81
2022-08-26T23:58:55.858Z,100512.47
